Time;durP1;ratioP1;P1;durP2;ratioP2;P2;SDS_P1;SDS_P2;PMS_P1;PMS_P2;Temp;Humidity;BMP_temperature;BMP_pressure;BME280_temperature;BME280_humidity;BME280_pressure;Samples;Min_cycle;Max_cycle;Signal;HPM_P1;HPM_P2
2022/04/18 00:00:46;;;;;;;0.88;0.80;;;21.50;39.30;;;;;;5135643;27;20030;-60
2022/04/18 00:03:12;;;;;;;1.48;1.00;;;21.40;39.20;;;;;;5135609;27;20474;-60
2022/04/18 00:05:38;;;;;;;1.00;0.93;;;21.50;39.90;;;;;;5135760;27;20022;-61
2022/04/18 00:08:08;;;;;;;1.17;0.90;;;21.40;39.30;;;;;;5135702;27;20489;-61
2022/04/18 00:10:36;;;;;;;1.10;1.00;;;21.40;39.20;;;;;;5136049;27;20027;-61
2022/04/18 00:13:02;;;;;;;1.10;1.00;;;21.40;39.20;;;;;;5135656;27;20049;-61
2022/04/18 00:15:30;;;;;;;0.88;0.70;;;21.40;39.20;;;;;;5135381;27;20037;-61
2022/04/18 00:17:56;;;;;;;0.82;0.82;;;21.40;39.30;;;;;;5135406;27;20015;-61
2022/04/18 00:20:23;;;;;;;1.15;0.85;;;21.40;39.30;;;;;;5135267;27;20473;-61
2022/04/18 00:22:49;;;;;;;1.30;1.08;;;21.40;39.30;;;;;;5117065;27;20562;-61
2022/04/18 00:25:15;;;;;;;1.02;0.90;;;21.40;39.30;;;;;;5136218;27;20102;-61
2022/04/18 00:27:42;;;;;;;0.82;0.80;;;21.40;39.30;;;;;;5136672;27;20028;-61
2022/04/18 00:30:09;;;;;;;1.13;0.98;;;21.40;39.30;;;;;;5136217;27;20020;-61
2022/04/18 00:32:36;;;;;;;0.85;0.80;;;21.40;39.30;;;;;;5135689;27;20029;-61
2022/04/18 00:35:05;;;;;;;0.80;0.80;;;21.30;39.20;;;;;;5116948;27;20121;-61
2022/04/18 00:37:32;;;;;;;1.83;1.00;;;21.40;39.30;;;;;;5135569;27;20023;-63
2022/04/18 00:39:58;;;;;;;1.23;0.93;;;21.30;39.30;;;;;;5135486;27;20027;-62
2022/04/18 00:42:25;;;;;;;0.80;0.80;;;21.30;39.30;;;;;;5135759;27;20458;-61
2022/04/18 00:44:50;;;;;;;0.80;0.80;;;21.30;39.30;;;;;;5136440;27;20084;-61
2022/04/18 00:47:18;;;;;;;1.00;0.90;;;21.30;39.30;;;;;;5135411;27;20018;-61
2022/04/18 00:49:44;;;;;;;1.27;0.90;;;21.30;39.30;;;;;;5134975;27;20017;-63
2022/04/18 00:52:10;;;;;;;1.10;1.00;;;21.30;39.30;;;;;;5134613;27;20477;-61
2022/04/18 00:54:36;;;;;;;1.40;0.90;;;21.30;39.30;;;;;;5116244;27;20016;-61
2022/04/18 00:57:02;;;;;;;1.00;0.90;;;21.30;39.30;;;;;;5134863;27;20434;-61
2022/04/18 00:59:29;;;;;;;2.00;0.90;;;21.30;39.30;;;;;;5136293;27;20026;-61
2022/04/18 01:01:55;;;;;;;1.50;1.02;;;21.30;39.30;;;;;;5101405;27;20007;-61
2022/04/18 01:04:23;;;;;;;1.50;1.00;;;21.30;39.30;;;;;;5134679;27;20020;-61
2022/04/18 01:06:49;;;;;;;1.00;0.90;;;21.30;39.40;;;;;;5135038;27;20112;-61
2022/04/18 01:09:15;;;;;;;1.55;0.95;;;21.30;39.40;;;;;;5135085;27;20019;-61
2022/04/18 01:11:42;;;;;;;1.42;1.05;;;21.30;39.40;;;;;;5134342;27;20043;-61
2022/04/18 01:14:08;;;;;;;1.42;0.90;;;21.30;39.40;;;;;;5134166;27;20013;-61
2022/04/18 01:16:35;;;;;;;1.80;0.98;;;21.30;39.40;;;;;;5134582;27;20034;-61
2022/04/18 01:19:01;;;;;;;1.13;0.80;;;21.30;39.40;;;;;;5134349;27;20019;-61
2022/04/18 01:21:28;;;;;;;1.10;1.00;;;21.30;39.40;;;;;;5134394;27;20018;-61
2022/04/18 01:23:54;;;;;;;1.40;0.80;;;21.30;39.40;;;;;;5134057;27;20039;-61
2022/04/18 01:29:06;;;;;;;1.15;1.00;;;21.30;39.40;;;;;;5134352;27;20512;-61
2022/04/18 01:31:32;;;;;;;1.45;1.10;;;21.20;39.40;;;;;;5134103;27;20023;-61
2022/04/18 01:33:59;;;;;;;1.10;1.00;;;21.20;39.40;;;;;;5134068;27;20015;-60
2022/04/18 01:36:25;;;;;;;1.60;1.10;;;21.20;39.40;;;;;;5133331;27;20007;-61
2022/04/18 01:38:51;;;;;;;1.70;1.00;;;21.20;39.40;;;;;;5134093;27;20027;-62
2022/04/18 01:41:18;;;;;;;1.63;0.95;;;21.20;39.40;;;;;;5134389;27;20023;-61
2022/04/18 01:43:44;;;;;;;1.23;1.13;;;21.20;39.40;;;;;;5134138;27;20007;-61
2022/04/18 01:46:10;;;;;;;1.00;0.90;;;21.20;39.60;;;;;;5134585;27;20168;-61
2022/04/18 01:48:35;;;;;;;1.30;1.08;;;21.20;39.40;;;;;;5134537;27;20489;-61
2022/04/18 01:51:02;;;;;;;1.10;1.00;;;21.20;39.50;;;;;;5134194;27;20088;-61
2022/04/18 01:53:31;;;;;;;2.47;1.08;;;21.20;39.50;;;;;;5134782;28;20091;-63
2022/04/18 01:55:57;;;;;;;1.02;0.93;;;21.20;39.50;;;;;;5134780;28;20489;-62
2022/04/18 01:58:23;;;;;;;1.35;1.08;;;21.20;39.50;;;;;;5134148;28;20019;-61
2022/04/18 02:00:49;;;;;;;1.02;0.93;;;21.20;39.50;;;;;;5134276;28;20019;-63
2022/04/18 02:03:16;;;;;;;1.10;1.00;;;21.20;39.50;;;;;;5115494;28;20022;-63
2022/04/18 02:05:43;;;;;;;1.50;1.00;;;21.20;39.50;;;;;;5134001;28;20016;-63
2022/04/18 02:08:09;;;;;;;1.70;1.08;;;21.20;39.50;;;;;;5134075;28;20435;-62
2022/04/18 02:10:35;;;;;;;1.45;1.10;;;21.10;39.40;;;;;;5115786;28;20057;-60
2022/04/18 02:13:01;;;;;;;1.70;0.98;;;21.20;39.50;;;;;;5134134;28;20060;-63
2022/04/18 02:15:28;;;;;;;1.08;0.95;;;21.10;39.40;;;;;;5116473;28;20023;-63
2022/04/18 02:17:54;;;;;;;1.20;0.93;;;21.10;39.50;;;;;;5136891;28;20026;-62
2022/04/18 02:20:21;;;;;;;1.08;0.98;;;21.10;39.50;;;;;;5138874;28;20031;-63
2022/04/18 02:22:47;;;;;;;1.00;0.90;;;21.10;39.40;;;;;;5136303;28;20040;-63
2022/04/18 02:25:13;;;;;;;3.47;1.15;;;21.10;39.50;;;;;;5134555;28;20012;-63
2022/04/18 02:27:39;;;;;;;1.30;1.00;;;21.10;39.50;;;;;;5133788;28;20022;-62
2022/04/18 02:30:09;;;;;;;1.95;1.00;;;21.10;39.60;;;;;;5115870;28;20092;-62
2022/04/18 02:32:47;;;;;;;1.08;1.00;;;21.10;39.50;;;;;;5133347;28;20504;-62
2022/04/18 02:35:19;;;;;;;1.33;1.10;;;21.10;39.50;;;;;;5134657;28;20032;-62
2022/04/18 02:37:45;;;;;;;1.50;1.00;;;21.10;39.50;;;;;;5134987;28;20094;-62
2022/04/18 02:40:12;;;;;;;1.30;1.10;;;21.00;39.50;;;;;;5116900;28;20080;-62
2022/04/18 02:42:39;;;;;;;1.10;1.00;;;21.10;39.60;;;;;;5134524;28;20091;-62
2022/04/18 02:45:06;;;;;;;1.60;1.02;;;21.10;39.60;;;;;;5134514;28;20046;-62
2022/04/18 02:47:32;;;;;;;1.23;1.05;;;21.00;39.60;;;;;;5134067;27;20022;-63
2022/04/18 02:49:59;;;;;;;1.10;0.90;;;21.00;39.60;;;;;;5137907;27;20023;-63
2022/04/18 02:52:26;;;;;;;1.17;0.90;;;21.00;39.60;;;;;;5137593;27;20016;-62
2022/04/18 02:54:53;;;;;;;1.48;1.10;;;21.00;39.60;;;;;;5137449;27;20035;-62
2022/04/18 02:57:18;;;;;;;1.10;1.00;;;21.00;39.60;;;;;;5119267;27;20019;-62
2022/04/18 02:59:45;;;;;;;1.52;1.10;;;21.00;39.60;;;;;;5137278;27;20075;-62
2022/04/18 03:02:11;;;;;;;1.20;0.98;;;21.00;39.70;;;;;;5137289;27;20019;-62
2022/04/18 03:04:37;;;;;;;1.35;1.00;;;21.00;39.60;;;;;;5137267;27;20374;-62
2022/04/18 03:07:03;;;;;;;1.25;1.15;;;21.00;39.60;;;;;;5136992;27;20485;-62
2022/04/18 03:09:29;;;;;;;1.40;1.00;;;21.00;39.60;;;;;;5118483;27;20035;-62
2022/04/18 03:11:56;;;;;;;1.25;1.05;;;21.00;39.70;;;;;;5137274;27;20019;-63
2022/04/18 03:14:23;;;;;;;1.98;1.20;;;21.00;39.70;;;;;;5137906;27;20050;-63
2022/04/18 03:16:49;;;;;;;2.17;1.10;;;21.00;39.70;;;;;;5137743;27;20489;-63
2022/04/18 03:19:15;;;;;;;1.15;0.90;;;21.00;40.10;;;;;;5120028;27;20023;-61
2022/04/18 03:21:43;;;;;;;1.17;0.98;;;21.00;39.60;;;;;;5137918;27;20022;-62
2022/04/18 03:24:09;;;;;;;1.15;0.90;;;21.00;39.50;;;;;;5136847;27;20024;-62
2022/04/18 03:26:36;;;;;;;1.40;1.02;;;20.90;39.50;;;;;;5137371;27;20020;-63
2022/04/18 03:29:02;;;;;;;2.17;1.27;;;20.90;39.50;;;;;;5118372;27;20012;-61
2022/04/18 03:31:28;;;;;;;3.75;1.25;;;20.90;39.50;;;;;;5136372;27;20015;-64
2022/04/18 03:33:55;;;;;;;2.17;1.13;;;20.90;39.50;;;;;;5136248;27;20039;-62
2022/04/18 03:41:50;;;;;;;1.80;1.25;;;20.90;39.40;;;;;;5120812;27;20385;-62
2022/04/18 03:44:17;;;;;;;2.42;1.08;;;20.90;39.40;;;;;;5136153;27;20098;-61
2022/04/18 03:46:44;;;;;;;2.45;1.30;;;20.90;39.40;;;;;;5136157;27;20102;-60
2022/04/18 03:49:09;;;;;;;1.70;1.20;;;20.90;39.40;;;;;;5117798;27;20063;-60
2022/04/18 03:51:36;;;;;;;1.95;1.10;;;20.90;39.40;;;;;;5136285;27;20101;-60
2022/04/18 03:54:01;;;;;;;1.38;0.95;;;20.90;39.50;;;;;;5136045;27;20023;-60
2022/04/18 03:56:28;;;;;;;1.13;1.02;;;20.90;39.60;;;;;;5136395;27;20034;-60
2022/04/18 03:58:55;;;;;;;1.65;1.25;;;20.90;39.60;;;;;;5136855;27;20065;-59
2022/04/18 04:01:22;;;;;;;1.33;1.10;;;20.80;39.50;;;;;;5135680;27;20062;-60
2022/04/18 04:03:49;;;;;;;1.40;1.05;;;20.80;39.50;;;;;;5136943;27;20012;-60
2022/04/18 04:06:15;;;;;;;1.60;1.10;;;20.80;39.50;;;;;;5137078;27;20011;-60
2022/04/18 04:08:41;;;;;;;1.55;1.25;;;20.90;39.70;;;;;;5137017;27;20346;-60
2022/04/18 04:11:07;;;;;;;1.25;1.08;;;20.80;39.60;;;;;;5136302;27;20022;-60
2022/04/18 04:13:34;;;;;;;1.38;1.05;;;20.80;39.60;;;;;;5136307;27;20029;-63
2022/04/18 04:15:59;;;;;;;1.17;1.00;;;20.80;39.50;;;;;;5136054;27;20477;-60
2022/04/18 04:18:26;;;;;;;2.30;1.27;;;20.80;39.50;;;;;;5135659;27;20019;-60
2022/04/18 04:20:52;;;;;;;1.38;1.20;;;20.80;39.50;;;;;;5135694;27;20089;-59
2022/04/18 04:23:19;;;;;;;1.35;1.05;;;20.80;39.70;;;;;;5135451;27;20055;-59
2022/04/18 04:25:45;;;;;;;1.10;1.00;;;20.80;39.60;;;;;;5135567;27;20039;-60
2022/04/18 04:28:11;;;;;;;1.48;0.98;;;20.80;39.60;;;;;;5135864;27;20031;-60
2022/04/18 04:30:37;;;;;;;1.80;1.10;;;20.80;39.50;;;;;;5117542;27;20039;-60
2022/04/18 04:33:03;;;;;;;1.40;1.00;;;20.80;39.60;;;;;;5116987;27;20074;-60
2022/04/18 04:35:29;;;;;;;1.20;1.10;;;20.80;39.60;;;;;;5135468;27;20027;-60
2022/04/18 04:37:56;;;;;;;1.00;0.93;;;20.80;39.60;;;;;;5135435;27;20098;-60
2022/04/18 04:40:22;;;;;;;1.65;1.20;;;20.80;39.50;;;;;;5139196;27;20477;-59
2022/04/18 04:42:49;;;;;;;1.17;1.05;;;20.80;39.50;;;;;;5138821;27;20008;-60
2022/04/18 04:45:15;;;;;;;1.20;1.10;;;20.80;39.60;;;;;;5138492;27;20011;-60
2022/04/18 04:47:43;;;;;;;1.40;1.10;;;20.80;39.60;;;;;;5137249;27;20022;-60
2022/04/18 04:50:09;;;;;;;1.50;0.98;;;20.80;39.60;;;;;;5119294;27;20146;-59
2022/04/18 04:52:35;;;;;;;1.65;1.08;;;20.80;39.60;;;;;;5135434;27;20051;-60
2022/04/18 04:55:02;;;;;;;1.40;1.02;;;20.80;39.60;;;;;;5135760;27;20023;-59
2022/04/18 04:57:28;;;;;;;2.38;1.30;;;20.80;39.50;;;;;;5136224;27;20015;-60
2022/04/18 04:59:54;;;;;;;1.17;1.08;;;20.70;39.60;;;;;;5135807;27;20477;-59
2022/04/18 05:02:21;;;;;;;1.90;1.10;;;20.70;39.40;;;;;;5117711;27;20072;-59
2022/04/18 05:04:47;;;;;;;1.10;1.00;;;20.80;39.50;;;;;;5117121;27;20015;-60
2022/04/18 05:07:13;;;;;;;1.70;1.10;;;20.70;39.50;;;;;;5135416;27;20015;-60
2022/04/18 05:09:38;;;;;;;1.30;1.10;;;20.80;39.50;;;;;;5135157;27;20103;-60
2022/04/18 05:12:05;;;;;;;3.55;1.30;;;20.80;39.40;;;;;;5135217;27;20408;-60
2022/04/18 05:14:31;;;;;;;2.03;1.15;;;20.80;39.50;;;;;;5116238;27;20019;-61
2022/04/18 05:16:59;;;;;;;2.15;1.30;;;20.80;39.50;;;;;;5135230;27;20098;-61
2022/04/18 05:19:25;;;;;;;1.52;1.23;;;20.80;39.40;;;;;;5135658;27;20122;-60
2022/04/18 05:21:52;;;;;;;1.10;0.95;;;20.90;39.10;;;;;;5134934;27;20016;-61
2022/04/18 05:24:18;;;;;;;1.50;1.20;;;21.10;38.90;;;;;;5134495;27;20450;-60
2022/04/18 05:26:46;;;;;;;1.50;1.33;;;21.20;38.70;;;;;;5135095;27;20011;-61
2022/04/18 05:29:12;;;;;;;1.25;1.05;;;21.20;38.60;;;;;;5116544;27;20023;-61
2022/04/18 05:31:38;;;;;;;1.25;1.10;;;21.30;38.40;;;;;;5134691;27;20150;-60
2022/04/18 05:34:03;;;;;;;1.10;1.00;;;21.40;38.30;;;;;;5134823;27;20144;-60
2022/04/18 05:36:30;;;;;;;1.20;1.10;;;21.50;38.10;;;;;;5116783;27;20091;-60
2022/04/18 05:38:56;;;;;;;1.20;1.08;;;21.60;37.90;;;;;;5134688;27;20020;-60
2022/04/18 05:41:25;;;;;;;1.10;1.00;;;21.70;37.80;;;;;;5134166;27;20059;-61
2022/04/18 05:43:50;;;;;;;2.55;1.10;;;21.80;37.70;;;;;;5115671;27;20011;-60
2022/04/18 05:46:17;;;;;;;3.80;1.20;;;21.80;37.60;;;;;;5134069;27;20035;-60
2022/04/18 05:48:43;;;;;;;1.45;1.23;;;21.80;37.40;;;;;;5133922;27;20076;-60
2022/04/18 05:51:09;;;;;;;2.08;1.08;;;21.90;37.40;;;;;;5098531;28;20027;-60
2022/04/18 05:53:35;;;;;;;1.33;1.13;;;22.00;37.30;;;;;;5134055;28;20031;-60
2022/04/18 05:56:01;;;;;;;0.98;0.90;;;22.00;37.40;;;;;;5134800;28;20022;-61
2022/04/18 05:58:28;;;;;;;1.50;1.10;;;22.00;37.20;;;;;;5116180;28;20030;-58
2022/04/18 06:00:54;;;;;;;1.98;0.90;;;22.00;37.20;;;;;;5134101;28;20119;-60
2022/04/18 06:03:21;;;;;;;1.20;1.10;;;22.10;37.10;;;;;;5134417;28;20035;-59
2022/04/18 06:05:48;;;;;;;1.23;1.08;;;22.10;37.00;;;;;;5133633;28;20012;-61
2022/04/18 06:08:14;;;;;;;1.30;1.05;;;22.10;37.00;;;;;;5133943;28;20063;-60
2022/04/18 06:10:41;;;;;;;1.23;1.10;;;22.10;37.00;;;;;;5081611;28;20015;-59
2022/04/18 06:13:09;;;;;;;1.67;1.30;;;22.10;37.00;;;;;;5133860;28;20027;-59
2022/04/18 06:15:35;;;;;;;1.73;1.20;;;22.20;36.90;;;;;;5115668;28;20469;-60
2022/04/18 06:18:01;;;;;;;1.50;0.90;;;22.20;36.90;;;;;;5115298;28;20019;-59
2022/04/18 06:20:27;;;;;;;1.23;1.00;;;22.30;36.80;;;;;;5098510;28;20023;-60
2022/04/18 06:22:53;;;;;;;4.10;1.00;;;22.20;36.70;;;;;;5134447;27;20043;-60
2022/04/18 06:25:20;;;;;;;0.90;0.85;;;22.30;36.70;;;;;;5120039;27;20018;-59
2022/04/18 06:27:47;;;;;;;1.23;1.13;;;22.30;36.70;;;;;;5139277;27;20014;-59
2022/04/18 06:30:14;;;;;;;1.48;1.10;;;22.30;36.60;;;;;;5138710;27;20038;-59
2022/04/18 06:32:40;;;;;;;1.85;1.42;;;22.30;36.60;;;;;;5120388;27;20080;-59
2022/04/18 06:35:07;;;;;;;1.02;0.93;;;22.30;36.50;;;;;;5138956;27;20023;-58
2022/04/18 06:37:33;;;;;;;1.60;0.73;;;22.30;36.50;;;;;;5137960;27;20069;-59
2022/04/18 06:39:59;;;;;;;0.90;0.90;;;22.30;36.50;;;;;;5137426;27;20035;-59
2022/04/18 06:42:25;;;;;;;1.33;1.00;;;22.40;36.50;;;;;;5137289;27;20094;-59
2022/04/18 06:44:52;;;;;;;1.05;1.00;;;22.40;36.50;;;;;;5137209;27;20023;-59
2022/04/18 06:47:19;;;;;;;1.00;0.90;;;22.40;36.40;;;;;;5137248;27;20064;-59
2022/04/18 06:49:48;;;;;;;2.42;0.95;;;22.40;36.40;;;;;;5137527;27;20090;-59
2022/04/18 06:52:14;;;;;;;0.98;0.90;;;22.40;36.40;;;;;;5137121;27;20031;-59
2022/04/18 06:54:41;;;;;;;1.55;1.10;;;22.40;36.50;;;;;;5137510;27;20022;-59
2022/04/18 06:57:08;;;;;;;2.28;1.05;;;22.40;36.50;;;;;;5137382;27;20023;-59
2022/04/18 06:59:34;;;;;;;1.98;1.02;;;22.40;37.00;;;;;;5136946;27;20031;-60
2022/04/18 07:02:00;;;;;;;1.10;0.95;;;22.50;36.50;;;;;;5137319;27;20023;-59
2022/04/18 07:04:26;;;;;;;1.00;0.90;;;22.50;36.50;;;;;;5137094;27;20019;-60
2022/04/18 07:06:53;;;;;;;4.65;1.23;;;22.50;36.30;;;;;;5137424;27;20027;-59
2022/04/18 07:09:19;;;;;;;1.27;1.10;;;22.50;36.30;;;;;;5137362;27;20012;-60
2022/04/18 07:11:45;;;;;;;1.42;1.10;;;22.50;36.20;;;;;;5137295;27;20015;-59
2022/04/18 07:14:12;;;;;;;1.00;0.90;;;22.60;36.30;;;;;;5137351;27;20051;-59
2022/04/18 07:16:40;;;;;;;1.08;0.90;;;22.50;36.40;;;;;;5137319;27;20022;-59
2022/04/18 07:19:08;;;;;;;1.20;0.93;;;22.50;36.30;;;;;;5137322;27;20014;-58
2022/04/18 07:21:34;;;;;;;1.30;1.10;;;22.60;36.30;;;;;;5137088;27;20023;-59
2022/04/18 07:24:01;;;;;;;1.38;1.00;;;22.60;36.40;;;;;;5136717;27;20602;-59
2022/04/18 07:26:27;;;;;;;1.38;1.00;;;22.50;36.50;;;;;;5137083;27;20043;-61
2022/04/18 07:28:53;;;;;;;1.75;1.08;;;22.60;36.40;;;;;;5137504;27;20466;-60
2022/04/18 07:31:19;;;;;;;1.00;0.90;;;22.60;36.30;;;;;;5119282;27;20023;-61
2022/04/18 07:33:44;;;;;;;1.30;1.00;;;22.70;36.20;;;;;;5119136;27;20067;-60
2022/04/18 07:36:10;;;;;;;1.27;1.00;;;22.60;36.10;;;;;;5117320;27;20382;-60
2022/04/18 07:38:51;;;;;;;1.55;0.93;;;22.70;36.10;;;;;;5101849;27;20027;-61
2022/04/18 07:41:27;;;;;;;3.25;1.00;;;22.70;36.20;;;;;;5136396;27;20393;-61
2022/04/18 07:43:53;;;;;;;3.38;1.10;;;22.60;36.10;;;;;;5136753;27;20007;-60
2022/04/18 07:46:19;;;;;;;1.70;1.10;;;22.70;36.10;;;;;;5101150;27;20011;-60
2022/04/18 07:48:46;;;;;;;1.70;1.02;;;22.70;36.00;;;;;;5136732;27;20032;-61
2022/04/18 07:53:57;;;;;;;1.88;1.30;;;22.80;36.00;;;;;;5137139;27;20038;-60
2022/04/18 07:56:23;;;;;;;1.45;1.10;;;22.70;36.00;;;;;;5137214;27;20019;-61
2022/04/18 07:58:50;;;;;;;1.75;1.10;;;22.80;36.00;;;;;;5136920;27;20026;-60
2022/04/18 08:01:16;;;;;;;0.82;0.80;;;22.70;35.90;;;;;;5136578;27;20030;-60
2022/04/18 08:03:43;;;;;;;1.33;0.98;;;22.80;35.80;;;;;;5136487;27;20473;-60
2022/04/18 08:06:12;;;;;;;1.35;0.98;;;22.80;35.70;;;;;;5136121;27;20068;-60
2022/04/18 08:08:38;;;;;;;1.63;1.27;;;22.90;35.60;;;;;;5101740;27;20462;-60
2022/04/18 08:11:04;;;;;;;1.42;0.95;;;22.90;35.70;;;;;;5118289;27;20023;-60
2022/04/18 08:13:31;;;;;;;1.10;1.00;;;22.80;35.70;;;;;;5136082;27;20031;-60
2022/04/18 08:15:57;;;;;;;1.80;1.30;;;22.80;35.90;;;;;;5136097;27;20068;-60
2022/04/18 08:18:26;;;;;;;2.45;1.23;;;22.80;35.70;;;;;;5136258;27;20019;-60
2022/04/18 08:20:52;;;;;;;1.60;1.00;;;22.90;35.50;;;;;;5135810;27;20752;-60
2022/04/18 08:23:18;;;;;;;1.73;1.00;;;22.80;35.40;;;;;;5135487;27;20035;-60
2022/04/18 08:25:44;;;;;;;1.50;1.10;;;22.80;35.70;;;;;;5136112;27;20018;-60
2022/04/18 08:28:11;;;;;;;1.10;0.90;;;22.80;35.60;;;;;;5136589;27;20034;-60
2022/04/18 08:30:37;;;;;;;1.00;0.90;;;22.70;35.60;;;;;;5117668;27;20022;-60
2022/04/18 08:33:03;;;;;;;1.23;0.93;;;22.60;35.90;;;;;;5136613;27;20019;-61
2022/04/18 08:35:32;;;;;;;2.05;1.08;;;22.60;35.90;;;;;;5117659;27;20445;-60
2022/04/18 08:37:59;;;;;;;1.60;1.17;;;22.60;35.60;;;;;;5101809;27;20053;-60
2022/04/18 08:40:25;;;;;;;1.27;1.00;;;22.60;35.60;;;;;;5136938;27;20027;-60
2022/04/18 08:42:54;;;;;;;1.50;1.10;;;22.60;35.80;;;;;;5137308;27;20015;-60
2022/04/18 08:45:23;;;;;;;1.17;0.98;;;22.60;35.90;;;;;;5136690;27;20060;-61
2022/04/18 08:53:18;;;;;;;1.30;1.10;;;22.50;35.90;;;;;;5106605;27;20393;-60
2022/04/18 08:55:44;;;;;;;2.15;1.20;;;22.60;35.90;;;;;;5117732;27;20023;-60
2022/04/18 08:58:11;;;;;;;1.52;1.20;;;22.50;36.00;;;;;;5135776;27;20061;-60
2022/04/18 09:00:37;;;;;;;1.48;1.13;;;22.50;35.80;;;;;;5100782;27;20016;-60
2022/04/18 09:03:04;;;;;;;1.23;1.10;;;22.60;35.50;;;;;;5134921;27;20024;-60
2022/04/18 09:05:37;;;;;;;1.60;1.13;;;22.60;35.60;;;;;;5134697;27;20071;-60
2022/04/18 09:08:09;;;;;;;2.00;1.20;;;22.70;35.50;;;;;;5117138;27;20028;-60
2022/04/18 09:10:36;;;;;;;3.47;1.10;;;22.70;35.40;;;;;;5117584;27;20019;-60
2022/04/18 09:13:06;;;;;;;1.73;1.08;;;22.70;35.50;;;;;;5134943;27;20026;-60
2022/04/18 09:15:35;;;;;;;3.00;1.20;;;22.60;35.50;;;;;;5134391;27;20110;-60
2022/04/18 09:18:16;;;;;;;2.72;0.90;;;22.70;35.30;;;;;;5134483;27;20030;-60
2022/04/18 09:20:46;;;;;;;2.30;1.27;;;22.70;35.40;;;;;;5135094;27;20027;-59
2022/04/18 09:23:39;;;;;;;1.73;1.17;;;22.60;35.30;;;;;;5134890;27;20023;-60
2022/04/18 09:26:08;;;;;;;1.85;1.17;;;22.70;35.30;;;;;;5131652;27;20059;-60
2022/04/18 09:28:38;;;;;;;1.38;1.17;;;22.70;35.20;;;;;;5135984;27;20091;-60
2022/04/18 09:31:06;;;;;;;1.55;1.05;;;22.80;35.20;;;;;;5135598;27;20015;-61
2022/04/18 09:33:40;;;;;;;2.33;1.20;;;22.80;35.10;;;;;;5136638;27;20018;-63
2022/04/18 09:36:19;;;;;;;2.03;1.10;;;22.80;34.90;;;;;;5135175;27;20016;-60
2022/04/18 09:38:52;;;;;;;1.13;0.93;;;22.80;34.70;;;;;;5134832;27;20012;-60
2022/04/18 09:41:23;;;;;;;1.27;1.10;;;22.90;34.40;;;;;;5134006;27;20052;-60
2022/04/18 09:43:49;;;;;;;1.67;1.00;;;22.80;34.40;;;;;;5134027;27;20015;-61
2022/04/18 09:46:15;;;;;;;1.58;1.17;;;22.80;34.60;;;;;;5134283;27;20019;-60
2022/04/18 09:48:41;;;;;;;1.55;1.20;;;22.80;34.60;;;;;;5134458;27;20027;-60
2022/04/18 09:51:25;;;;;;;2.28;1.30;;;22.80;34.20;;;;;;5134182;27;20023;-61
2022/04/18 09:53:54;;;;;;;1.48;1.30;;;22.90;34.50;;;;;;5133863;27;20091;-60
2022/04/18 09:56:21;;;;;;;2.15;1.15;;;22.90;34.40;;;;;;5133865;28;20151;-61
2022/04/18 09:58:47;;;;;;;1.10;0.93;;;22.90;34.50;;;;;;5133565;27;20015;-60
2022/04/18 10:01:13;;;;;;;1.52;1.05;;;22.90;34.50;;;;;;5135111;28;20036;-59
2022/04/18 10:03:40;;;;;;;2.97;1.10;;;22.80;34.60;;;;;;5136363;28;20042;-60
2022/04/18 10:06:06;;;;;;;1.48;1.10;;;22.80;34.30;;;;;;5135634;28;20017;-59
2022/04/18 10:08:33;;;;;;;1.42;1.10;;;22.80;34.30;;;;;;5101180;28;20047;-61
2022/04/18 10:10:59;;;;;;;1.73;0.95;;;22.80;34.40;;;;;;5135774;28;20022;-60
2022/04/18 10:13:26;;;;;;;2.08;1.00;;;22.80;34.40;;;;;;5134454;28;20020;-60
2022/04/18 10:15:53;;;;;;;2.47;1.35;;;22.80;34.30;;;;;;5134269;28;20030;-60
2022/04/18 10:18:18;;;;;;;1.27;1.15;;;22.80;34.00;;;;;;5115614;28;20015;-60
2022/04/18 10:21:06;;;;;;;2.97;1.00;;;22.80;34.00;;;;;;5115317;28;20028;-60
2022/04/18 10:24:09;;;;;;;1.40;1.13;;;22.70;34.30;;;;;;5133833;28;20497;-60
2022/04/18 10:27:00;;;;;;;1.55;1.13;;;22.80;34.20;;;;;;5134235;28;20012;-60
2022/04/18 10:29:29;;;;;;;1.30;1.03;;;22.70;34.60;;;;;;5134252;28;20534;-61
2022/04/18 10:31:55;;;;;;;1.10;1.00;;;22.60;34.60;;;;;;5133896;28;20011;-60
2022/04/18 10:34:31;;;;;;;1.90;1.17;;;22.70;34.60;;;;;;5116042;28;20011;-60
2022/04/18 10:36:57;;;;;;;0.82;0.82;;;22.60;33.90;;;;;;5133922;28;20008;-60
2022/04/18 10:39:24;;;;;;;1.90;1.20;;;22.60;34.30;;;;;;5133528;28;20498;-60
2022/04/18 10:41:51;;;;;;;2.70;1.15;;;22.60;34.40;;;;;;5098620;28;20023;-60
2022/04/18 10:44:18;;;;;;;3.13;1.20;;;22.50;35.20;;;;;;5115248;28;20015;-60
2022/04/18 10:46:56;;;;;;;1.77;1.10;;;22.50;34.30;;;;;;5133826;28;20027;-60
2022/04/18 10:49:23;;;;;;;2.67;1.30;;;22.60;34.30;;;;;;5133846;28;20019;-60
2022/04/18 10:51:51;;;;;;;1.58;1.30;;;22.60;34.40;;;;;;5115630;28;20031;-60
2022/04/18 10:54:21;;;;;;;2.08;0.90;;;22.50;34.60;;;;;;5133479;28;20015;-59
2022/04/18 10:56:58;;;;;;;2.95;1.15;;;22.60;34.40;;;;;;5115755;28;20007;-61
2022/04/18 10:59:31;;;;;;;1.77;1.10;;;22.60;34.20;;;;;;5134586;28;20102;-60
2022/04/18 11:01:58;;;;;;;1.73;1.05;;;22.60;34.10;;;;;;5117240;28;20112;-60
2022/04/18 11:04:26;;;;;;;1.98;0.90;;;22.60;34.10;;;;;;5133619;28;20016;-60
2022/04/18 11:06:57;;;;;;;1.23;1.10;;;22.50;34.10;;;;;;5133096;28;20041;-60
2022/04/18 11:09:24;;;;;;;1.38;0.93;;;22.50;34.50;;;;;;5134369;27;20042;-63
2022/04/18 11:12:06;;;;;;;1.92;1.10;;;22.50;34.00;;;;;;5137363;27;20377;-60
2022/04/18 11:14:37;;;;;;;;;;;22.40;34.00;;;;;;5138067;27;20011;-60
2022/04/18 11:17:03;;;;;;;1.40;0.98;;;22.40;33.80;;;;;;5137922;27;19900;-60
2022/04/18 11:19:39;;;;;;;1.88;1.10;;;22.50;34.00;;;;;;5138180;27;20018;-60
2022/04/18 11:22:08;;;;;;;1.48;1.02;;;22.60;34.10;;;;;;5137798;27;20030;-60
2022/04/18 11:24:44;;;;;;;1.83;1.13;;;22.50;34.20;;;;;;5137264;27;20055;-61
2022/04/18 11:27:14;;;;;;;1.20;0.90;;;22.40;33.90;;;;;;5118868;27;20026;-60
2022/04/18 11:29:56;;;;;;;1.60;0.90;;;22.50;34.10;;;;;;5118854;27;20063;-60
2022/04/18 11:32:24;;;;;;;1.13;1.00;;;22.60;34.20;;;;;;5137088;27;20023;-60
2022/04/18 11:34:53;;;;;;;1.42;1.05;;;22.60;33.60;;;;;;5136558;27;20102;-61
2022/04/18 11:37:43;;;;;;;2.70;0.90;;;22.60;33.60;;;;;;5136496;27;20057;-60
2022/04/18 11:40:13;;;;;;;2.28;1.20;;;22.70;33.30;;;;;;5136373;27;20469;-61
2022/04/18 11:42:40;;;;;;;2.45;1.25;;;22.60;32.60;;;;;;5118045;27;20019;-60
2022/04/18 11:45:10;;;;;;;0.98;0.85;;;22.70;33.80;;;;;;5136741;27;20019;-60
2022/04/18 11:47:37;;;;;;;4.00;1.13;;;22.60;33.00;;;;;;5136496;27;20027;-60
2022/04/18 11:50:04;;;;;;;2.28;1.10;;;22.70;33.20;;;;;;5118307;27;20014;-60
2022/04/18 11:52:35;;;;;;;2.83;1.23;;;22.60;33.10;;;;;;5084578;27;20037;-61
2022/04/18 11:55:01;;;;;;;;;;;22.60;33.30;;;;;;5136926;27;20136;-60
2022/04/18 11:57:28;;;;;;;1.65;0.90;;;22.60;33.00;;;;;;5136065;27;20365;-60
2022/04/18 11:59:54;;;;;;;1.48;0.93;;;22.70;33.10;;;;;;5136268;27;20024;-60
2022/04/18 12:08:00;;;;;;;1.15;0.93;;;22.60;33.30;;;;;;5136585;27;20385;-60
2022/04/18 12:10:28;;;;;;;1.10;0.93;;;22.70;33.30;;;;;;5136643;27;20076;-61
2022/04/18 12:12:54;;;;;;;1.45;1.00;;;22.70;33.00;;;;;;5137094;27;20019;-60
2022/04/18 12:15:24;;;;;;;2.05;1.00;;;22.60;33.40;;;;;;5136848;27;20377;-61
2022/04/18 12:17:50;;;;;;;1.17;1.00;;;22.70;33.50;;;;;;5136243;27;20087;-60
2022/04/18 12:20:23;;;;;;;1.25;1.13;;;22.60;33.70;;;;;;5135680;27;20025;-60
2022/04/18 12:22:53;;;;;;;2.80;0.93;;;22.70;33.10;;;;;;5135710;27;20035;-60
2022/04/18 12:25:23;;;;;;;2.10;1.17;;;22.60;32.60;;;;;;5135941;27;20016;-60
2022/04/18 12:27:49;;;;;;;2.28;0.98;;;22.50;33.10;;;;;;5135426;27;20068;-60
2022/04/18 12:30:18;;;;;;;1.92;1.10;;;22.60;33.30;;;;;;5135475;27;20012;-60
2022/04/18 12:32:47;;;;;;;1.27;1.00;;;22.60;33.40;;;;;;5135729;27;20015;-60
2022/04/18 12:35:34;;;;;;;2.70;1.05;;;22.60;33.00;;;;;;5136129;27;20106;-62
2022/04/18 12:38:01;;;;;;;1.20;0.88;;;22.60;32.70;;;;;;5135682;27;20068;-60
2022/04/18 12:40:36;;;;;;;2.15;1.30;;;22.60;33.30;;;;;;5135516;27;20050;-60
2022/04/18 12:43:11;;;;;;;3.75;1.00;;;22.60;33.60;;;;;;5135804;27;20469;-60
2022/04/18 12:46:01;;;;;;;2.85;0.93;;;22.60;33.70;;;;;;5100474;27;20012;-60
2022/04/18 12:48:28;;;;;;;1.73;0.95;;;22.60;34.00;;;;;;5122745;27;20030;-60
2022/04/18 12:50:55;;;;;;;1.70;1.30;;;22.60;33.60;;;;;;5135770;27;20015;-60
2022/04/18 12:53:21;;;;;;;1.33;0.80;;;22.50;33.70;;;;;;5135422;27;20546;-61
2022/04/18 12:56:04;;;;;;;1.05;0.88;;;22.50;34.00;;;;;;5135072;27;20026;-60
2022/04/18 12:58:40;;;;;;;1.50;0.90;;;22.60;34.20;;;;;;5119484;27;20047;-60
2022/04/18 13:01:19;;;;;;;1.05;0.90;;;22.60;34.00;;;;;;5101176;27;20571;-60
2022/04/18 13:03:45;;;;;;;1.52;1.10;;;22.60;34.20;;;;;;5116851;27;20011;-60
2022/04/18 13:06:22;;;;;;;1.10;1.00;;;22.60;34.20;;;;;;5134945;27;20015;-60
2022/04/18 13:08:48;;;;;;;1.58;0.90;;;22.60;34.20;;;;;;5135244;27;20015;-61
2022/04/18 13:11:14;;;;;;;1.63;1.23;;;22.60;34.30;;;;;;5135371;27;20099;-60
2022/04/18 13:13:42;;;;;;;1.20;0.90;;;22.60;34.40;;;;;;5117322;27;20011;-60